createdAt,value
2024-03-11T00:01:12.540Z,15.78
2024-03-11T00:03:38.693Z,15.77
2024-03-11T00:06:04.893Z,15.78
2024-03-11T00:08:31.090Z,15.78
2024-03-11T00:10:57.413Z,15.78
2024-03-11T00:13:23.654Z,15.77
2024-03-11T00:15:49.793Z,15.77
2024-03-11T00:18:16.343Z,15.77
2024-03-11T00:20:42.631Z,15.77
2024-03-11T00:23:08.799Z,15.78
2024-03-11T00:25:34.988Z,15.77
2024-03-11T00:28:02.104Z,15.78
2024-03-11T00:30:28.260Z,15.77
2024-03-11T00:32:54.791Z,15.77
2024-03-11T00:35:21.165Z,15.76
2024-03-11T00:37:47.444Z,15.76
2024-03-11T00:40:13.658Z,15.77
2024-03-11T00:42:39.960Z,15.76
2024-03-11T00:45:06.249Z,15.76
2024-03-11T00:47:32.514Z,15.76
2024-03-11T00:49:58.760Z,15.76
2024-03-11T00:52:25.136Z,15.78
2024-03-11T00:54:51.274Z,15.78
2024-03-11T00:57:17.423Z,15.77
2024-03-11T00:59:46.120Z,15.76
2024-03-11T01:02:12.791Z,15.77
2024-03-11T01:04:38.974Z,15.76
2024-03-11T01:07:12.962Z,15.77
2024-03-11T01:09:46.438Z,15.77
2024-03-11T01:12:12.673Z,15.75
2024-03-11T01:14:38.990Z,15.76
2024-03-11T01:17:05.608Z,15.74
2024-03-11T01:19:31.751Z,15.76
2024-03-11T01:22:00.618Z,15.76
2024-03-11T01:24:26.790Z,15.74
2024-03-11T01:26:52.919Z,15.75
2024-03-11T01:29:19.099Z,15.74
2024-03-11T01:31:45.251Z,15.76
2024-03-11T01:34:11.387Z,15.73
2024-03-11T01:36:37.531Z,15.76
2024-03-11T01:39:03.744Z,15.75
2024-03-11T01:41:29.913Z,15.75
2024-03-11T01:43:56.052Z,15.74
2024-03-11T01:46:22.214Z,15.73
2024-03-11T01:48:48.349Z,15.74
2024-03-11T01:51:14.597Z,15.73
2024-03-11T01:53:40.847Z,15.73
2024-03-11T01:56:07.026Z,15.74
2024-03-11T01:58:33.181Z,15.73
2024-03-11T02:00:59.376Z,15.73
2024-03-11T02:03:25.546Z,15.74
2024-03-11T02:05:51.710Z,15.74
2024-03-11T02:08:17.911Z,15.73
2024-03-11T02:10:44.121Z,15.72
2024-03-11T02:13:10.308Z,15.72
2024-03-11T02:15:36.490Z,15.72
2024-03-11T02:18:02.716Z,15.73
2024-03-11T02:20:28.989Z,15.73
2024-03-11T02:22:55.275Z,15.73
2024-03-11T02:25:21.551Z,15.73
2024-03-11T02:27:47.801Z,15.73
2024-03-11T02:30:13.968Z,15.73
2024-03-11T02:32:40.169Z,15.73
2024-03-11T02:35:06.336Z,15.73
2024-03-11T02:37:32.685Z,15.72
2024-03-11T02:39:58.965Z,15.72
2024-03-11T02:42:25.105Z,15.73
2024-03-11T02:44:51.316Z,15.73
2024-03-11T02:47:17.628Z,15.73
2024-03-11T02:49:43.790Z,15.72
2024-03-11T02:52:09.971Z,15.74
2024-03-11T02:54:36.164Z,15.73
2024-03-11T02:57:02.319Z,15.73
2024-03-11T02:59:28.571Z,15.72
2024-03-11T03:01:54.787Z,15.73
2024-03-11T03:04:20.929Z,15.73
2024-03-11T03:06:47.098Z,15.73
2024-03-11T03:09:13.242Z,15.72
2024-03-11T03:11:39.476Z,15.72
2024-03-11T03:14:05.717Z,15.72
2024-03-11T03:16:31.895Z,15.71
2024-03-11T03:18:58.050Z,15.73
2024-03-11T03:21:24.734Z,15.72
2024-03-11T03:23:50.982Z,15.72
2024-03-11T03:26:17.176Z,15.71
2024-03-11T03:28:43.359Z,15.72
2024-03-11T03:31:09.538Z,15.70
2024-03-11T03:33:35.718Z,15.71
2024-03-11T03:36:02.683Z,15.71
2024-03-11T03:38:28.910Z,15.71
2024-03-11T03:40:55.115Z,15.72
2024-03-11T03:43:21.324Z,15.71
2024-03-11T03:45:47.590Z,15.72
2024-03-11T03:48:13.870Z,15.72
2024-03-11T03:50:40.168Z,15.72
2024-03-11T03:53:09.367Z,15.71
2024-03-11T03:55:35.983Z,15.71
2024-03-11T03:58:02.150Z,15.71
2024-03-11T04:00:28.309Z,15.72
2024-03-11T04:02:54.526Z,15.71
2024-03-11T04:05:20.808Z,15.72
2024-03-11T04:07:47.049Z,15.70
2024-03-11T04:10:13.230Z,15.69
2024-03-11T04:12:39.473Z,15.70
2024-03-11T04:15:05.613Z,15.70
2024-03-11T04:17:31.800Z,15.71
2024-03-11T04:19:57.983Z,15.70
2024-03-11T04:22:24.122Z,15.69
2024-03-11T04:24:50.251Z,15.70
2024-03-11T04:27:16.911Z,15.70
2024-03-11T04:29:43.082Z,15.70
2024-03-11T04:32:09.258Z,15.70
2024-03-11T04:34:35.536Z,15.70
2024-03-11T04:37:01.732Z,15.70
2024-03-11T04:39:27.932Z,15.70
2024-03-11T04:41:54.307Z,15.70
2024-03-11T04:44:20.642Z,15.70
2024-03-11T04:46:46.834Z,15.70
2024-03-11T04:49:12.984Z,15.69
2024-03-11T04:51:39.121Z,15.70
2024-03-11T04:54:05.261Z,15.69
2024-03-11T04:56:31.411Z,15.68
2024-03-11T04:58:57.551Z,15.70
2024-03-11T05:01:25.002Z,15.69
2024-03-11T05:03:51.249Z,15.70
2024-03-11T05:06:17.378Z,15.69
2024-03-11T05:08:43.552Z,15.70
2024-03-11T05:11:09.790Z,15.68
2024-03-11T05:13:35.987Z,15.69
2024-03-11T05:16:02.242Z,15.69
2024-03-11T05:18:28.522Z,15.69
2024-03-11T05:20:54.844Z,15.68
2024-03-11T05:23:21.071Z,15.68
2024-03-11T05:25:47.228Z,15.68
2024-03-11T05:28:13.363Z,15.68
2024-03-11T05:30:39.524Z,15.69
2024-03-11T05:33:05.752Z,15.69
2024-03-11T05:35:32.055Z,15.68
2024-03-11T05:37:58.254Z,15.69
2024-03-11T05:40:24.926Z,15.67
2024-03-11T05:42:51.119Z,15.68
2024-03-11T05:45:17.290Z,15.68
2024-03-11T05:47:43.720Z,15.67
2024-03-11T05:50:10.096Z,15.66
2024-03-11T05:52:36.263Z,15.68
2024-03-11T05:55:05.655Z,15.66
2024-03-11T05:57:33.318Z,15.67
2024-03-11T05:59:59.466Z,15.66
2024-03-11T06:02:25.675Z,15.66
2024-03-11T06:04:51.886Z,15.66
2024-03-11T06:07:18.050Z,15.66
2024-03-11T06:09:44.209Z,15.68
2024-03-11T06:12:10.433Z,15.68
2024-03-11T06:14:36.629Z,15.68
2024-03-11T06:17:05.251Z,15.67
2024-03-11T06:19:32.333Z,15.66
2024-03-11T06:21:58.498Z,15.66
2024-03-11T06:24:24.660Z,15.66
2024-03-11T06:26:50.844Z,15.66
2024-03-11T06:29:17.144Z,15.65
2024-03-11T06:31:43.642Z,15.65
2024-03-11T06:34:09.824Z,15.66
2024-03-11T06:36:35.969Z,15.66
2024-03-11T06:39:02.160Z,15.66
2024-03-11T06:41:28.370Z,15.66
2024-03-11T06:43:54.584Z,15.66
2024-03-11T06:46:20.770Z,15.65
2024-03-11T06:48:47.021Z,15.65
2024-03-11T06:51:13.224Z,15.65
2024-03-11T06:53:39.413Z,15.65
2024-03-11T06:56:05.593Z,15.64
2024-03-11T06:58:31.745Z,15.64
2024-03-11T07:00:57.911Z,15.64
2024-03-11T07:03:24.076Z,15.63
2024-03-11T07:05:50.233Z,15.64
2024-03-11T07:08:16.470Z,15.63
2024-03-11T07:10:42.675Z,15.64
2024-03-11T07:13:08.855Z,15.65
2024-03-11T07:15:35.060Z,15.64
2024-03-11T07:18:01.283Z,15.64
2024-03-11T07:20:27.489Z,15.64
2024-03-11T07:22:53.655Z,15.64
2024-03-11T07:25:19.875Z,15.63
2024-03-11T07:27:46.018Z,15.64
2024-03-11T07:30:12.172Z,15.63
2024-03-11T07:32:38.336Z,15.63
2024-03-11T07:35:04.473Z,15.63
2024-03-11T07:37:31.127Z,15.64
2024-03-11T07:39:57.266Z,15.63
2024-03-11T07:42:23.449Z,15.62
2024-03-11T07:44:49.745Z,15.64
2024-03-11T07:47:15.966Z,15.63
2024-03-11T07:49:42.113Z,15.64
2024-03-11T07:52:08.398Z,15.62
2024-03-11T07:54:37.429Z,15.62
2024-03-11T07:57:03.741Z,15.62
2024-03-11T07:59:29.937Z,15.62
2024-03-11T08:01:56.105Z,15.63
2024-03-11T08:04:22.263Z,15.63
2024-03-11T08:06:48.430Z,15.64
2024-03-11T08:09:14.584Z,15.64
2024-03-11T08:11:40.806Z,15.63
2024-03-11T08:14:07.033Z,15.62
2024-03-11T08:16:33.231Z,15.63
2024-03-11T08:18:59.419Z,15.63
2024-03-11T08:21:25.582Z,15.63
2024-03-11T08:23:51.722Z,15.62
2024-03-11T08:26:17.917Z,15.62
2024-03-11T08:28:44.082Z,15.62
2024-03-11T08:31:10.242Z,15.62
2024-03-11T08:33:36.371Z,15.62
2024-03-11T08:36:05.878Z,15.62
2024-03-11T08:38:32.049Z,15.62
2024-03-11T08:40:58.239Z,15.62
2024-03-11T08:43:24.952Z,15.62
2024-03-11T08:45:51.078Z,15.62
2024-03-11T08:48:17.352Z,15.61
2024-03-11T08:50:43.587Z,15.61
2024-03-11T08:53:09.760Z,15.62
2024-03-11T08:55:36.003Z,15.61
2024-03-11T08:58:02.168Z,15.63
2024-03-11T09:00:28.320Z,15.62
2024-03-11T09:02:54.490Z,15.61
2024-03-11T09:05:20.999Z,15.61
2024-03-11T09:07:47.514Z,15.61
2024-03-11T09:10:13.792Z,15.61
2024-03-11T09:12:39.975Z,15.61
2024-03-11T09:15:06.147Z,15.61
2024-03-11T09:17:32.300Z,15.62
2024-03-11T09:19:58.482Z,15.62
2024-03-11T09:22:24.704Z,15.63
2024-03-11T09:24:50.895Z,15.62
2024-03-11T09:27:17.080Z,15.61
2024-03-11T09:29:43.222Z,15.62
2024-03-11T09:32:09.366Z,15.61
2024-03-11T09:34:35.580Z,15.61
2024-03-11T09:37:01.726Z,15.61
2024-03-11T09:39:27.901Z,15.60
2024-03-11T09:41:54.115Z,15.60
2024-03-11T09:44:21.176Z,15.61
2024-03-11T09:46:47.484Z,15.62
2024-03-11T09:49:13.671Z,15.61
2024-03-11T09:51:39.925Z,15.61
2024-03-11T09:54:06.424Z,15.61
2024-03-11T09:56:32.588Z,15.62
2024-03-11T09:58:58.726Z,15.60
2024-03-11T10:01:24.973Z,15.61
2024-03-11T10:03:51.235Z,15.61
2024-03-11T10:06:17.432Z,15.60
2024-03-11T10:08:43.588Z,15.60
2024-03-11T10:11:09.873Z,15.60
2024-03-11T10:13:36.135Z,15.59
2024-03-11T10:16:02.295Z,15.58
2024-03-11T10:18:28.493Z,15.60
2024-03-11T10:20:54.708Z,15.58
2024-03-11T10:23:20.853Z,15.60
2024-03-11T10:25:47.006Z,15.58
2024-03-11T10:28:13.170Z,15.59
2024-03-11T10:30:39.441Z,15.58
2024-03-11T10:33:05.805Z,15.59
2024-03-11T10:35:32.098Z,15.57
2024-03-11T10:37:58.291Z,15.57
2024-03-11T10:40:24.462Z,15.58
2024-03-11T10:42:50.667Z,15.58
2024-03-11T10:45:16.874Z,15.58
2024-03-11T10:47:43.190Z,15.58
2024-03-11T10:50:09.379Z,15.57
2024-03-11T10:52:35.641Z,15.57
2024-03-11T10:55:11.763Z,15.57
2024-03-11T10:57:41.415Z,15.57
2024-03-11T11:00:07.949Z,15.58
2024-03-11T11:02:34.097Z,15.57
2024-03-11T11:05:00.274Z,15.57
2024-03-11T11:07:26.423Z,15.56
2024-03-11T11:09:52.641Z,15.56
2024-03-11T11:12:18.911Z,15.56
2024-03-11T11:14:45.158Z,15.56
2024-03-11T11:17:11.336Z,15.55
2024-03-11T11:19:37.494Z,15.57
2024-03-11T11:22:03.725Z,15.57
2024-03-11T11:24:31.743Z,15.57
2024-03-11T11:26:59.860Z,15.55
2024-03-11T11:29:26.046Z,15.56
2024-03-11T11:31:52.220Z,15.54
2024-03-11T11:34:18.379Z,15.54
2024-03-11T11:36:45.214Z,15.54
2024-03-11T11:39:11.472Z,15.55
2024-03-11T11:41:37.665Z,15.55
2024-03-11T11:44:03.908Z,15.54
2024-03-11T11:46:30.088Z,15.54
2024-03-11T11:48:56.303Z,15.55
2024-03-11T11:51:22.791Z,15.54
2024-03-11T11:53:54.561Z,15.55
2024-03-11T11:56:28.744Z,15.53
2024-03-11T11:58:54.891Z,15.54
2024-03-11T12:01:21.104Z,15.54
2024-03-11T12:03:47.419Z,15.54
2024-03-11T12:06:14.047Z,15.54
2024-03-11T12:08:40.196Z,15.54
2024-03-11T12:11:06.402Z,15.53
2024-03-11T12:13:32.563Z,15.52
2024-03-11T12:15:58.734Z,15.53
2024-03-11T12:18:25.011Z,15.53
2024-03-11T12:20:51.261Z,15.52
2024-03-11T12:23:17.402Z,15.49
2024-03-11T12:25:43.603Z,15.51
2024-03-11T12:28:10.010Z,15.51
2024-03-11T12:30:36.285Z,15.52
2024-03-11T12:33:02.515Z,15.51
2024-03-11T12:35:28.690Z,15.52
2024-03-11T12:37:54.837Z,15.51
2024-03-11T12:40:20.971Z,15.51
2024-03-11T12:42:47.212Z,15.51
2024-03-11T12:45:13.363Z,15.52
2024-03-11T12:47:39.560Z,15.52
2024-03-11T12:50:05.744Z,15.52
2024-03-11T12:52:31.868Z,15.51
2024-03-11T12:55:01.272Z,15.51
2024-03-11T12:57:27.644Z,15.51
2024-03-11T12:59:53.799Z,15.50
2024-03-11T13:02:20.099Z,15.51
2024-03-11T13:04:46.382Z,15.51
2024-03-11T13:07:12.513Z,15.51
2024-03-11T13:09:38.696Z,15.50
2024-03-11T13:12:04.958Z,15.50
2024-03-11T13:14:31.224Z,15.50
2024-03-11T13:16:57.442Z,15.51
2024-03-11T13:19:23.636Z,15.50
2024-03-11T13:21:49.893Z,15.50
2024-03-11T13:24:16.094Z,15.51
2024-03-11T13:26:42.289Z,15.51
2024-03-11T13:29:08.476Z,15.52
2024-03-11T13:31:34.678Z,15.50
2024-03-11T13:34:00.932Z,15.50
2024-03-11T13:36:27.140Z,15.49
2024-03-11T13:38:53.390Z,15.50
2024-03-11T13:41:19.559Z,15.49
2024-03-11T13:43:45.793Z,15.48
2024-03-11T13:46:12.184Z,15.49
2024-03-11T13:48:38.487Z,15.50
2024-03-11T13:51:04.652Z,15.49
2024-03-11T13:53:30.864Z,15.48
2024-03-11T13:55:57.030Z,15.47
2024-03-11T13:58:23.183Z,15.47
2024-03-11T14:00:49.851Z,15.47
2024-03-11T14:03:16.029Z,15.47
2024-03-11T14:05:42.189Z,15.48
2024-03-11T14:08:10.529Z,15.47
2024-03-11T14:10:36.754Z,15.44
2024-03-11T14:13:02.966Z,15.44
2024-03-11T14:15:29.211Z,15.46
2024-03-11T14:17:56.067Z,15.47
2024-03-11T14:20:22.298Z,15.47
2024-03-11T14:22:48.453Z,15.47
2024-03-11T14:25:15.153Z,15.44
2024-03-11T14:27:42.374Z,15.46
2024-03-11T14:30:08.602Z,15.47
2024-03-11T14:32:34.801Z,15.47
2024-03-11T14:35:00.988Z,15.46
2024-03-11T14:37:27.174Z,15.46
2024-03-11T14:39:53.559Z,15.46
2024-03-11T14:42:19.736Z,15.46
2024-03-11T14:44:45.892Z,15.45
2024-03-11T14:47:12.038Z,15.46
2024-03-11T14:49:38.170Z,15.46
2024-03-11T14:52:04.410Z,15.46
2024-03-11T14:54:30.804Z,15.46
2024-03-11T14:56:57.272Z,15.47
2024-03-11T14:59:23.429Z,15.47
2024-03-11T15:01:49.806Z,15.46
2024-03-11T15:04:15.978Z,15.45
2024-03-11T15:06:42.165Z,15.45
2024-03-11T15:09:08.312Z,15.46
2024-03-11T15:11:34.626Z,15.46
2024-03-11T15:14:00.849Z,15.47
2024-03-11T15:16:27.063Z,15.49
2024-03-11T15:18:53.322Z,15.47
2024-03-11T15:21:19.547Z,15.47
2024-03-11T15:23:45.727Z,15.46
2024-03-11T15:26:11.884Z,15.45
2024-03-11T15:28:38.039Z,15.45
2024-03-11T15:31:04.222Z,15.45
2024-03-11T15:33:30.508Z,15.45
2024-03-11T15:35:56.657Z,15.44
2024-03-11T15:38:22.909Z,15.47
2024-03-11T15:40:49.076Z,15.47
2024-03-11T15:43:15.282Z,15.46
2024-03-11T15:45:41.460Z,15.48
2024-03-11T15:48:07.649Z,15.47
2024-03-11T15:50:33.825Z,15.47
2024-03-11T15:52:59.975Z,15.45
2024-03-11T15:55:26.142Z,15.45
2024-03-11T15:57:52.382Z,15.45
2024-03-11T16:00:18.558Z,15.45
2024-03-11T16:02:44.716Z,15.46
2024-03-11T16:05:11.156Z,15.45
2024-03-11T16:07:37.297Z,15.45
2024-03-11T16:10:03.611Z,15.47
2024-03-11T16:12:29.942Z,15.47
2024-03-11T16:14:56.137Z,15.48
2024-03-11T16:17:22.274Z,15.47
2024-03-11T16:19:48.479Z,15.47
2024-03-11T16:22:15.313Z,15.47
2024-03-11T16:24:42.578Z,15.47
2024-03-11T16:27:08.749Z,15.46
2024-03-11T16:29:34.876Z,15.47
2024-03-11T16:32:01.013Z,15.45
2024-03-11T16:34:27.530Z,15.46
2024-03-11T16:36:53.889Z,15.47
2024-03-11T16:39:20.120Z,15.47
2024-03-11T16:41:46.321Z,15.47
2024-03-11T16:44:12.463Z,15.46
2024-03-11T16:46:38.601Z,15.46
2024-03-11T16:49:04.869Z,15.46
2024-03-11T16:51:31.163Z,15.46
2024-03-11T16:53:57.444Z,15.48
2024-03-11T16:56:23.611Z,15.46
2024-03-11T16:58:49.766Z,15.46
2024-03-11T17:01:16.228Z,15.46
2024-03-11T17:03:42.576Z,15.46
2024-03-11T17:06:08.722Z,15.46
2024-03-11T17:08:34.880Z,15.45
2024-03-11T17:11:01.407Z,15.45
2024-03-11T17:13:27.555Z,15.46
2024-03-11T17:15:53.754Z,15.46
2024-03-11T17:18:20.129Z,15.45
2024-03-11T17:20:46.550Z,15.48
2024-03-11T17:23:12.736Z,15.49
2024-03-11T17:25:38.892Z,15.47
2024-03-11T17:28:05.102Z,15.47
2024-03-11T17:30:31.316Z,15.46
2024-03-11T17:32:57.635Z,15.46
2024-03-11T17:35:23.789Z,15.47
2024-03-11T17:37:49.974Z,15.46
2024-03-11T17:40:16.180Z,15.47
2024-03-11T17:42:42.407Z,15.47
2024-03-11T17:45:08.645Z,15.46
2024-03-11T17:47:34.897Z,15.48
2024-03-11T17:50:01.076Z,15.48
2024-03-11T17:52:27.229Z,15.48
2024-03-11T17:54:53.461Z,15.48
2024-03-11T17:57:19.729Z,15.48
2024-03-11T17:59:45.936Z,15.47
2024-03-11T18:02:12.118Z,15.47
2024-03-11T18:04:38.254Z,15.48
2024-03-11T18:07:04.435Z,15.48
2024-03-11T18:09:30.620Z,15.48
2024-03-11T18:11:56.836Z,15.47
2024-03-11T18:14:23.091Z,15.47
2024-03-11T18:16:49.680Z,15.46
2024-03-11T18:19:16.696Z,15.48
2024-03-11T18:21:46.031Z,15.47
2024-03-11T18:24:12.514Z,15.47
2024-03-11T18:26:38.728Z,15.48
2024-03-11T18:29:04.965Z,15.47
2024-03-11T18:31:31.194Z,15.47
2024-03-11T18:33:57.488Z,15.45
2024-03-11T18:36:23.720Z,15.46
2024-03-11T18:38:49.905Z,15.47
2024-03-11T18:41:17.039Z,15.48
2024-03-11T18:43:43.179Z,15.47
2024-03-11T18:46:09.429Z,15.46
2024-03-11T18:48:35.609Z,15.45
2024-03-11T18:51:05.210Z,15.45
2024-03-11T18:53:32.968Z,15.46
2024-03-11T18:55:59.116Z,15.45
2024-03-11T18:58:25.291Z,15.46
2024-03-11T19:00:51.513Z,15.46
2024-03-11T19:03:17.721Z,15.46
2024-03-11T19:05:43.891Z,15.46
2024-03-11T19:08:10.059Z,15.45
2024-03-11T19:10:36.185Z,15.45
2024-03-11T19:13:02.385Z,15.45
2024-03-11T19:15:29.521Z,15.44
2024-03-11T19:17:56.558Z,15.44
2024-03-11T19:20:23.148Z,15.45
2024-03-11T19:22:49.451Z,15.44
2024-03-11T19:25:15.696Z,15.45
2024-03-11T19:27:43.198Z,15.45
2024-03-11T19:30:09.478Z,15.45
2024-03-11T19:32:35.724Z,15.44
2024-03-11T19:35:02.093Z,15.44
2024-03-11T19:37:28.447Z,15.43
2024-03-11T19:39:54.695Z,15.45
2024-03-11T19:42:22.796Z,15.45
2024-03-11T19:44:49.101Z,15.44
2024-03-11T19:47:15.249Z,15.43
2024-03-11T19:49:41.392Z,15.44
2024-03-11T19:52:07.844Z,15.43
2024-03-11T19:54:34.090Z,15.43
2024-03-11T19:57:00.309Z,15.44
2024-03-11T19:59:26.482Z,15.43
2024-03-11T20:01:55.282Z,15.44
2024-03-11T20:04:21.459Z,15.43
2024-03-11T20:06:47.660Z,15.43
2024-03-11T20:09:13.813Z,15.43
2024-03-11T20:11:41.193Z,15.43
2024-03-11T20:14:07.399Z,15.43
2024-03-11T20:16:33.546Z,15.44
2024-03-11T20:18:59.730Z,15.43
2024-03-11T20:21:25.977Z,15.43
2024-03-11T20:23:54.568Z,15.45
2024-03-11T20:26:20.718Z,15.45
2024-03-11T20:28:46.938Z,15.45
2024-03-11T20:31:13.106Z,15.44
2024-03-11T20:33:39.331Z,15.44
2024-03-11T20:36:05.563Z,15.45
2024-03-11T20:38:31.722Z,15.46
2024-03-11T20:40:57.863Z,15.47
2024-03-11T20:43:24.180Z,15.47
2024-03-11T20:45:50.494Z,15.47
2024-03-11T20:48:16.689Z,15.47
2024-03-11T20:50:43.031Z,15.47
2024-03-11T20:53:09.179Z,15.47
2024-03-11T20:55:35.342Z,15.46
2024-03-11T20:58:02.081Z,15.46
2024-03-11T21:00:28.442Z,15.46
2024-03-11T21:02:54.652Z,15.47
2024-03-11T21:05:22.555Z,15.46
2024-03-11T21:07:48.721Z,15.46
2024-03-11T21:10:14.944Z,15.46
2024-03-11T21:12:41.227Z,15.45
2024-03-11T21:15:09.864Z,15.46
2024-03-11T21:17:37.769Z,15.46
2024-03-11T21:20:03.949Z,15.47
2024-03-11T21:22:30.134Z,15.49
2024-03-11T21:24:56.318Z,15.48
2024-03-11T21:27:23.066Z,15.48
2024-03-11T21:29:49.211Z,15.49
2024-03-11T21:32:15.358Z,15.49
2024-03-11T21:34:41.523Z,15.49
2024-03-11T21:37:09.034Z,15.49
2024-03-11T21:39:35.325Z,15.49
2024-03-11T21:42:01.531Z,15.47
2024-03-11T21:44:27.667Z,15.48
2024-03-11T21:46:53.818Z,15.49
2024-03-11T21:49:19.994Z,15.48
2024-03-11T21:51:46.229Z,15.48
2024-03-11T21:54:12.416Z,15.48
2024-03-11T21:56:38.580Z,15.49
2024-03-11T21:59:04.718Z,15.48
2024-03-11T22:01:30.861Z,15.48
2024-03-11T22:03:57.126Z,15.48
2024-03-11T22:06:23.370Z,15.48
2024-03-11T22:08:49.673Z,15.47
2024-03-11T22:11:15.965Z,15.48
2024-03-11T22:13:42.130Z,15.47
2024-03-11T22:16:08.608Z,15.48
2024-03-11T22:18:35.177Z,15.48
2024-03-11T22:21:01.549Z,15.47
2024-03-11T22:23:27.776Z,15.47
2024-03-11T22:25:53.979Z,15.45
2024-03-11T22:28:20.200Z,15.46
2024-03-11T22:30:49.685Z,15.47
2024-03-11T22:33:16.071Z,15.45
2024-03-11T22:35:59.139Z,15.45
2024-03-11T22:38:27.498Z,15.45
2024-03-11T22:40:53.839Z,15.45
2024-03-11T22:43:22.177Z,15.46
2024-03-11T22:45:48.454Z,15.45
2024-03-11T22:48:17.751Z,15.44
2024-03-11T22:50:49.045Z,15.43
2024-03-11T22:53:15.364Z,15.44
2024-03-11T22:55:41.587Z,15.45
2024-03-11T22:58:07.829Z,15.44
2024-03-11T23:00:34.202Z,15.45
2024-03-11T23:03:00.483Z,15.44
2024-03-11T23:05:34.150Z,15.44
2024-03-11T23:08:03.539Z,15.44
2024-03-11T23:10:29.843Z,15.42
2024-03-11T23:12:56.119Z,15.44
2024-03-11T23:15:22.373Z,15.42
2024-03-11T23:17:48.599Z,15.43
2024-03-11T23:20:26.477Z,15.42
2024-03-11T23:22:59.192Z,15.45
2024-03-11T23:25:25.522Z,15.44
2024-03-11T23:27:53.693Z,15.44
2024-03-11T23:30:20.104Z,15.43
2024-03-11T23:32:46.355Z,15.42
2024-03-11T23:35:12.535Z,15.43
2024-03-11T23:37:39.180Z,15.43
2024-03-11T23:40:05.421Z,15.43
2024-03-11T23:42:31.665Z,15.42
2024-03-11T23:44:57.893Z,15.42
2024-03-11T23:47:24.049Z,15.42
2024-03-11T23:49:50.229Z,15.43
2024-03-11T23:52:16.451Z,15.41
2024-03-11T23:54:42.634Z,15.42
2024-03-11T23:57:08.810Z,15.43
2024-03-11T23:59:35.036Z,15.42
